sensor_id;sensor_type;location;lat;lon;timestamp;pressure;altitude;pressure_sealevel;temperature;humidity
65157;BME280;52745;49.794;18.258;2023-05-24T00:00:20;-16330.56;;;14.75;100.00
65157;BME280;52745;49.794;18.258;2023-05-24T00:03:07;-16329.34;;;14.71;100.00
65157;BME280;52745;49.794;18.258;2023-05-24T00:05:34;-16328.94;;;14.69;100.00
65157;BME280;52745;49.794;18.258;2023-05-24T00:08:06;-16327.16;;;14.62;100.00
65157;BME280;52745;49.794;18.258;2023-05-24T00:10:33;-16327.97;;;14.65;100.00
65157;BME280;52745;49.794;18.258;2023-05-24T00:12:59;-16329.06;;;14.69;100.00
65157;BME280;52745;49.794;18.258;2023-05-24T00:15:26;-16329.88;;;14.73;100.00
65157;BME280;52745;49.794;18.258;2023-05-24T00:17:53;-16329.34;;;14.71;100.00
65157;BME280;52745;49.794;18.258;2023-05-24T00:20:20;-16330.00;;;14.73;100.00
65157;BME280;52745;49.794;18.258;2023-05-24T00:22:46;-16329.88;;;14.73;100.00
65157;BME280;52745;49.794;18.258;2023-05-24T00:25:13;-16329.47;;;14.71;100.00
65157;BME280;52745;49.794;18.258;2023-05-24T00:27:40;-16330.69;;;14.76;100.00
65157;BME280;52745;49.794;18.258;2023-05-24T00:30:07;-16330.56;;;14.75;100.00
65157;BME280;52745;49.794;18.258;2023-05-24T00:32:34;-16332.06;;;14.81;100.00
65157;BME280;52745;49.794;18.258;2023-05-24T00:35:00;-16333.28;;;14.85;100.00
65157;BME280;52745;49.794;18.258;2023-05-24T00:37:27;-16332.31;;;14.82;100.00
65157;BME280;52745;49.794;18.258;2023-05-24T00:39:55;-16330.97;;;14.77;100.00
65157;BME280;52745;49.794;18.258;2023-05-24T00:42:21;-16330.41;;;14.75;100.00
65157;BME280;52745;49.794;18.258;2023-05-24T00:44:48;-16330.28;;;14.74;100.00
65157;BME280;52745;49.794;18.258;2023-05-24T00:47:15;-16328.50;;;14.67;100.00
65157;BME280;52745;49.794;18.258;2023-05-24T00:49:42;-16328.78;;;14.68;100.00
65157;BME280;52745;49.794;18.258;2023-05-24T00:52:09;-16328.94;;;14.69;100.00
65157;BME280;52745;49.794;18.258;2023-05-24T00:54:36;-16329.88;;;14.73;100.00
65157;BME280;52745;49.794;18.258;2023-05-24T00:57:06;-16329.75;;;14.72;100.00
65157;BME280;52745;49.794;18.258;2023-05-24T00:59:33;-16328.94;;;14.69;100.00
65157;BME280;52745;49.794;18.258;2023-05-24T01:01:59;-16328.50;;;14.67;100.00
65157;BME280;52745;49.794;18.258;2023-05-24T01:04:26;-16328.94;;;14.69;100.00
65157;BME280;52745;49.794;18.258;2023-05-24T01:09:58;-16328.25;;;14.66;100.00
65157;BME280;52745;49.794;18.258;2023-05-24T01:15:58;-16327.16;;;14.62;100.00
65157;BME280;52745;49.794;18.258;2023-05-24T01:18:30;-16327.44;;;14.63;100.00
65157;BME280;52745;49.794;18.258;2023-05-24T01:21:26;-16327.28;;;14.63;100.00
65157;BME280;52745;49.794;18.258;2023-05-24T01:27:05;-16326.19;;;14.59;100.00
65157;BME280;52745;49.794;18.258;2023-05-24T01:29:35;-16325.13;;;14.55;100.00
65157;BME280;52745;49.794;18.258;2023-05-24T01:32:02;-16324.03;;;14.51;100.00
65157;BME280;52745;49.794;18.258;2023-05-24T01:34:29;-16325.13;;;14.55;100.00
65157;BME280;52745;49.794;18.258;2023-05-24T01:36:56;-16325.53;;;14.56;100.00
65157;BME280;52745;49.794;18.258;2023-05-24T01:39:28;-16324.84;;;14.54;100.00
65157;BME280;52745;49.794;18.258;2023-05-24T01:42:14;-16324.69;;;14.53;100.00
65157;BME280;52745;49.794;18.258;2023-05-24T01:47:24;-16326.34;;;14.59;100.00
65157;BME280;52745;49.794;18.258;2023-05-24T01:49:58;-16326.34;;;14.59;100.00
65157;BME280;52745;49.794;18.258;2023-05-24T01:52:31;-16325.66;;;14.57;100.00
65157;BME280;52745;49.794;18.258;2023-05-24T01:55:03;-16326.06;;;14.58;100.00
65157;BME280;52745;49.794;18.258;2023-05-24T01:57:33;-16324.16;;;14.51;100.00
65157;BME280;52745;49.794;18.258;2023-05-24T02:00:02;-16324.16;;;14.51;100.00
65157;BME280;52745;49.794;18.258;2023-05-24T02:02:39;-16323.63;;;14.49;100.00
65157;BME280;52745;49.794;18.258;2023-05-24T02:05:07;-16323.06;;;14.47;100.00
65157;BME280;52745;49.794;18.258;2023-05-24T02:07:35;-16321.16;;;14.40;100.00
65157;BME280;52745;49.794;18.258;2023-05-24T02:10:01;-16321.84;;;14.42;100.00
65157;BME280;52745;49.794;18.258;2023-05-24T02:12:29;-16318.44;;;14.29;100.00
65157;BME280;52745;49.794;18.258;2023-05-24T02:14:56;-16319.13;;;14.32;100.00
65157;BME280;52745;49.794;18.258;2023-05-24T02:17:23;-16319.81;;;14.35;100.00
65157;BME280;52745;49.794;18.258;2023-05-24T02:19:52;-16319.94;;;14.35;100.00
65157;BME280;52745;49.794;18.258;2023-05-24T02:22:19;-16319.00;;;14.32;100.00
65157;BME280;52745;49.794;18.258;2023-05-24T02:24:47;-16317.22;;;14.25;100.00
65157;BME280;52745;49.794;18.258;2023-05-24T02:27:14;-16317.09;;;14.24;100.00
65157;BME280;52745;49.794;18.258;2023-05-24T02:29:41;-16316.69;;;14.23;100.00
65157;BME280;52745;49.794;18.258;2023-05-24T02:32:07;-16315.44;;;14.18;100.00
65157;BME280;52745;49.794;18.258;2023-05-24T02:34:34;-16313.56;;;14.11;100.00
65157;BME280;52745;49.794;18.258;2023-05-24T02:37:01;-16313.56;;;14.11;100.00
65157;BME280;52745;49.794;18.258;2023-05-24T02:39:28;-16314.09;;;14.13;100.00
65157;BME280;52745;49.794;18.258;2023-05-24T02:41:54;-16313.28;;;14.10;100.00
65157;BME280;52745;49.794;18.258;2023-05-24T02:44:21;-16313.41;;;14.11;100.00
65157;BME280;52745;49.794;18.258;2023-05-24T02:46:48;-16313.13;;;14.10;100.00
65157;BME280;52745;49.794;18.258;2023-05-24T02:49:14;-16313.56;;;14.11;100.00
65157;BME280;52745;49.794;18.258;2023-05-24T02:51:41;-16311.38;;;14.03;100.00
65157;BME280;52745;49.794;18.258;2023-05-24T02:54:08;-16311.66;;;14.04;100.00
65157;BME280;52745;49.794;18.258;2023-05-24T02:56:34;-16312.06;;;14.05;100.00
65157;BME280;52745;49.794;18.258;2023-05-24T02:59:02;-16312.06;;;14.05;100.00
65157;BME280;52745;49.794;18.258;2023-05-24T03:01:30;-16311.78;;;14.04;100.00
65157;BME280;52745;49.794;18.258;2023-05-24T03:03:58;-16311.50;;;14.03;100.00
65157;BME280;52745;49.794;18.258;2023-05-24T03:06:25;-16312.31;;;14.06;100.00
65157;BME280;52745;49.794;18.258;2023-05-24T03:08:51;-16310.28;;;13.99;100.00
65157;BME280;52745;49.794;18.258;2023-05-24T03:11:19;-16309.88;;;13.97;100.00
65157;BME280;52745;49.794;18.258;2023-05-24T03:13:47;-16307.44;;;13.88;100.00
65157;BME280;52745;49.794;18.258;2023-05-24T03:16:15;-16304.84;;;13.78;100.00
65157;BME280;52745;49.794;18.258;2023-05-24T03:18:42;-16303.88;;;13.75;100.00
65157;BME280;52745;49.794;18.258;2023-05-24T03:21:09;-16302.25;;;13.69;100.00
65157;BME280;52745;49.794;18.258;2023-05-24T03:23:36;-16301.16;;;13.64;100.00
65157;BME280;52745;49.794;18.258;2023-05-24T03:26:03;-16300.09;;;13.60;100.00
65157;BME280;52745;49.794;18.258;2023-05-24T03:28:30;-16296.00;;;13.45;100.00
65157;BME280;52745;49.794;18.258;2023-05-24T03:30:57;-16292.19;;;13.31;100.00
65157;BME280;52745;49.794;18.258;2023-05-24T03:33:24;-16288.91;;;13.18;100.00
65157;BME280;52745;49.794;18.258;2023-05-24T03:35:51;-16284.84;;;13.03;100.00
65157;BME280;52745;49.794;18.258;2023-05-24T03:38:17;-16284.97;;;13.03;100.00
65157;BME280;52745;49.794;18.258;2023-05-24T03:40:46;-16285.66;;;13.06;100.00
65157;BME280;52745;49.794;18.258;2023-05-24T03:43:17;-16284.56;;;13.02;100.00
65157;BME280;52745;49.794;18.258;2023-05-24T03:45:51;-16284.41;;;13.01;100.00
65157;BME280;52745;49.794;18.258;2023-05-24T03:48:19;-16285.50;;;13.05;100.00
65157;BME280;52745;49.794;18.258;2023-05-24T03:50:50;-16282.66;;;12.95;100.00
65157;BME280;52745;49.794;18.258;2023-05-24T03:53:17;-16281.44;;;12.90;100.00
65157;BME280;52745;49.794;18.258;2023-05-24T03:55:44;-16280.34;;;12.86;100.00
65157;BME280;52745;49.794;18.258;2023-05-24T03:58:12;-16278.56;;;12.79;100.00
65157;BME280;52745;49.794;18.258;2023-05-24T04:00:38;-16277.75;;;12.76;100.00
65157;BME280;52745;49.794;18.258;2023-05-24T04:03:05;-16278.72;;;12.80;100.00
65157;BME280;52745;49.794;18.258;2023-05-24T04:05:32;-16279.66;;;12.83;100.00
65157;BME280;52745;49.794;18.258;2023-05-24T04:08:01;-16280.06;;;12.85;100.00
65157;BME280;52745;49.794;18.258;2023-05-24T04:10:28;-16277.22;;;12.74;100.00
65157;BME280;52745;49.794;18.258;2023-05-24T04:12:55;-16276.78;;;12.73;100.00
65157;BME280;52745;49.794;18.258;2023-05-24T04:15:22;-16277.06;;;12.74;100.00
65157;BME280;52745;49.794;18.258;2023-05-24T04:17:50;-16277.47;;;12.75;100.00
65157;BME280;52745;49.794;18.258;2023-05-24T04:20:22;-16278.84;;;12.80;100.00
65157;BME280;52745;49.794;18.258;2023-05-24T04:22:53;-16278.44;;;12.79;100.00
65157;BME280;52745;49.794;18.258;2023-05-24T04:25:19;-16277.47;;;12.75;100.00
65157;BME280;52745;49.794;18.258;2023-05-24T04:27:46;-16275.97;;;12.70;100.00
65157;BME280;52745;49.794;18.258;2023-05-24T04:30:14;-16277.47;;;12.75;100.00
65157;BME280;52745;49.794;18.258;2023-05-24T04:32:44;-16278.03;;;12.77;100.00
65157;BME280;52745;49.794;18.258;2023-05-24T04:35:10;-16279.53;;;12.83;100.00
65157;BME280;52745;49.794;18.258;2023-05-24T04:37:37;-16275.72;;;12.69;100.00
65157;BME280;52745;49.794;18.258;2023-05-24T04:40:06;-16275.03;;;12.66;100.00
65157;BME280;52745;49.794;18.258;2023-05-24T04:42:34;-16275.72;;;12.69;100.00
65157;BME280;52745;49.794;18.258;2023-05-24T04:45:01;-16269.44;;;12.45;100.00
65157;BME280;52745;49.794;18.258;2023-05-24T04:47:28;-16266.59;;;12.34;100.00
65157;BME280;52745;49.794;18.258;2023-05-24T04:49:55;-16265.22;;;12.29;100.00
65157;BME280;52745;49.794;18.258;2023-05-24T04:52:22;-16261.41;;;12.15;100.00
65157;BME280;52745;49.794;18.258;2023-05-24T04:54:48;-16261.69;;;12.16;100.00
65157;BME280;52745;49.794;18.258;2023-05-24T04:57:15;-16257.31;;;11.99;100.00
65157;BME280;52745;49.794;18.258;2023-05-24T04:59:43;-16257.59;;;12.00;100.00
65157;BME280;52745;49.794;18.258;2023-05-24T05:02:09;-16258.16;;;12.03;100.00
65157;BME280;52745;49.794;18.258;2023-05-24T05:04:36;-16257.72;;;12.01;100.00
65157;BME280;52745;49.794;18.258;2023-05-24T05:07:03;-16254.75;;;11.90;100.00
65157;BME280;52745;49.794;18.258;2023-05-24T05:09:30;-16252.28;;;11.80;100.00
65157;BME280;52745;49.794;18.258;2023-05-24T05:11:56;-16251.72;;;11.78;100.00
65157;BME280;52745;49.794;18.258;2023-05-24T05:14:23;-16251.47;;;11.77;100.00
65157;BME280;52745;49.794;18.258;2023-05-24T05:16:50;-16245.47;;;11.55;100.00
65157;BME280;52745;49.794;18.258;2023-05-24T05:19:17;-16243.81;;;11.49;100.00
65157;BME280;52745;49.794;18.258;2023-05-24T05:21:43;-16243.69;;;11.48;100.00
65157;BME280;52745;49.794;18.258;2023-05-24T05:24:10;-16241.91;;;11.42;100.00
65157;BME280;52745;49.794;18.258;2023-05-24T05:26:37;-16240.28;;;11.35;100.00
65157;BME280;52745;49.794;18.258;2023-05-24T05:29:03;-16239.75;;;11.33;100.00
65157;BME280;52745;49.794;18.258;2023-05-24T05:31:30;-16239.59;;;11.33;100.00
65157;BME280;52745;49.794;18.258;2023-05-24T05:33:57;-16238.66;;;11.29;100.00
65157;BME280;52745;49.794;18.258;2023-05-24T05:36:24;-16238.09;;;11.27;100.00
65157;BME280;52745;49.794;18.258;2023-05-24T05:38:50;-16239.75;;;11.33;100.00
65157;BME280;52745;49.794;18.258;2023-05-24T05:41:17;-16238.38;;;11.28;100.00
65157;BME280;52745;49.794;18.258;2023-05-24T05:43:44;-16237.44;;;11.25;100.00
65157;BME280;52745;49.794;18.258;2023-05-24T05:46:11;-16239.19;;;11.31;100.00
65157;BME280;52745;49.794;18.258;2023-05-24T05:48:40;-16240.69;;;11.37;100.00
65157;BME280;52745;49.794;18.258;2023-05-24T05:51:07;-16240.00;;;11.34;100.00
65157;BME280;52745;49.794;18.258;2023-05-24T05:53:33;-16240.28;;;11.35;100.00
65157;BME280;52745;49.794;18.258;2023-05-24T05:56:00;-16238.94;;;11.30;100.00
65157;BME280;52745;49.794;18.258;2023-05-24T05:58:27;-16239.34;;;11.32;100.00
65157;BME280;52745;49.794;18.258;2023-05-24T06:00:54;-16240.00;;;11.34;100.00
65157;BME280;52745;49.794;18.258;2023-05-24T06:03:20;-16242.19;;;11.43;100.00
65157;BME280;52745;49.794;18.258;2023-05-24T06:05:47;-16243.44;;;11.47;100.00
65157;BME280;52745;49.794;18.258;2023-05-24T06:08:14;-16246.41;;;11.58;100.00
65157;BME280;52745;49.794;18.258;2023-05-24T06:10:40;-16248.75;;;11.67;100.00
65157;BME280;52745;49.794;18.258;2023-05-24T06:13:07;-16251.31;;;11.77;100.00
65157;BME280;52745;49.794;18.258;2023-05-24T06:15:34;-16249.28;;;11.69;100.00
65157;BME280;52745;49.794;18.258;2023-05-24T06:18:00;-16248.75;;;11.67;100.00
65157;BME280;52745;49.794;18.258;2023-05-24T06:20:27;-16251.31;;;11.77;100.00
65157;BME280;52745;49.794;18.258;2023-05-24T06:22:54;-16253.38;;;11.85;100.00
65157;BME280;52745;49.794;18.258;2023-05-24T06:25:22;-16251.59;;;11.78;100.00
65157;BME280;52745;49.794;18.258;2023-05-24T06:27:50;-16253.91;;;11.87;100.00
65157;BME280;52745;49.794;18.258;2023-05-24T06:30:19;-16253.38;;;11.85;100.00
65157;BME280;52745;49.794;18.258;2023-05-24T06:32:46;-16255.56;;;11.93;100.00
65157;BME280;52745;49.794;18.258;2023-05-24T06:35:12;-16254.06;;;11.87;100.00
65157;BME280;52745;49.794;18.258;2023-05-24T06:37:39;-16253.63;;;11.86;100.00
65157;BME280;52745;49.794;18.258;2023-05-24T06:40:06;-16253.91;;;11.87;100.00
65157;BME280;52745;49.794;18.258;2023-05-24T06:42:35;-16256.09;;;11.95;99.06
65157;BME280;52745;49.794;18.258;2023-05-24T06:45:02;-16253.38;;;11.85;99.97
65157;BME280;52745;49.794;18.258;2023-05-24T06:47:29;-16250.38;;;11.73;100.00
65157;BME280;52745;49.794;18.258;2023-05-24T06:49:56;-16252.16;;;11.80;100.00
65157;BME280;52745;49.794;18.258;2023-05-24T06:52:23;-16255.97;;;11.94;100.00
65157;BME280;52745;49.794;18.258;2023-05-24T06:54:49;-16258.69;;;12.05;99.80
65157;BME280;52745;49.794;18.258;2023-05-24T06:57:17;-16259.09;;;12.06;98.87
65157;BME280;52745;49.794;18.258;2023-05-24T06:59:44;-16257.31;;;11.99;98.81
65157;BME280;52745;49.794;18.258;2023-05-24T07:02:10;-16260.88;;;12.13;99.48
65157;BME280;52745;49.794;18.258;2023-05-24T07:04:37;-16263.19;;;12.21;98.59
65157;BME280;52745;49.794;18.258;2023-05-24T07:07:08;-16261.28;;;12.14;97.48
65157;BME280;52745;49.794;18.258;2023-05-24T07:09:39;-16260.47;;;12.11;98.08
65157;BME280;52745;49.794;18.258;2023-05-24T07:12:06;-16257.19;;;11.99;97.51
65157;BME280;52745;49.794;18.258;2023-05-24T07:14:34;-16259.38;;;12.07;98.87
65157;BME280;52745;49.794;18.258;2023-05-24T07:17:00;-16255.69;;;11.93;97.79
65157;BME280;52745;49.794;18.258;2023-05-24T07:19:27;-16257.06;;;11.98;97.76
65157;BME280;52745;49.794;18.258;2023-05-24T07:21:55;-16255.81;;;11.94;98.82
65157;BME280;52745;49.794;18.258;2023-05-24T07:24:22;-16257.47;;;12.00;99.63
65157;BME280;52745;49.794;18.258;2023-05-24T07:26:50;-16254.88;;;11.90;98.00
65157;BME280;52745;49.794;18.258;2023-05-24T07:29:17;-16255.28;;;11.92;97.70
65157;BME280;52745;49.794;18.258;2023-05-24T07:31:43;-16256.09;;;11.95;98.30
65157;BME280;52745;49.794;18.258;2023-05-24T07:34:10;-16257.88;;;12.01;98.42
65157;BME280;52745;49.794;18.258;2023-05-24T07:36:37;-16256.91;;;11.98;97.67
65157;BME280;52745;49.794;18.258;2023-05-24T07:39:04;-16252.81;;;11.83;98.68
65157;BME280;52745;49.794;18.258;2023-05-24T07:41:31;-16254.88;;;11.90;98.58
65157;BME280;52745;49.794;18.258;2023-05-24T07:43:58;-16252.81;;;11.83;99.11
65157;BME280;52745;49.794;18.258;2023-05-24T07:46:25;-16253.22;;;11.84;99.02
65157;BME280;52745;49.794;18.258;2023-05-24T07:48:52;-16253.63;;;11.86;99.14
65157;BME280;52745;49.794;18.258;2023-05-24T07:51:19;-16257.88;;;12.01;100.00
65157;BME280;52745;49.794;18.258;2023-05-24T07:53:47;-16255.28;;;11.92;98.79
65157;BME280;52745;49.794;18.258;2023-05-24T07:56:13;-16253.91;;;11.87;99.17
65157;BME280;52745;49.794;18.258;2023-05-24T07:58:40;-16251.88;;;11.79;99.39
65157;BME280;52745;49.794;18.258;2023-05-24T08:01:09;-16248.06;;;11.65;100.00
65157;BME280;52745;49.794;18.258;2023-05-24T08:03:36;-16250.78;;;11.75;100.00
65157;BME280;52745;49.794;18.258;2023-05-24T08:06:03;-16251.47;;;11.77;100.00
65157;BME280;52745;49.794;18.258;2023-05-24T08:08:30;-16251.47;;;11.77;100.00
65157;BME280;52745;49.794;18.258;2023-05-24T08:10:56;-16254.19;;;11.88;100.00
65157;BME280;52745;49.794;18.258;2023-05-24T08:13:23;-16253.22;;;11.84;99.90
65157;BME280;52745;49.794;18.258;2023-05-24T08:15:50;-16250.09;;;11.72;100.00
65157;BME280;52745;49.794;18.258;2023-05-24T08:18:17;-16247.78;;;11.64;100.00
65157;BME280;52745;49.794;18.258;2023-05-24T08:20:43;-16246.41;;;11.58;100.00
65157;BME280;52745;49.794;18.258;2023-05-24T08:23:10;-16244.91;;;11.53;100.00
65157;BME280;52745;49.794;18.258;2023-05-24T08:25:37;-16247.38;;;11.62;100.00
65157;BME280;52745;49.794;18.258;2023-05-24T08:28:03;-16247.50;;;11.63;100.00
65157;BME280;52745;49.794;18.258;2023-05-24T08:30:30;-16247.25;;;11.62;100.00
65157;BME280;52745;49.794;18.258;2023-05-24T08:32:57;-16249.56;;;11.70;100.00
65157;BME280;52745;49.794;18.258;2023-05-24T08:35:24;-16249.16;;;11.69;100.00
65157;BME280;52745;49.794;18.258;2023-05-24T08:37:51;-16251.19;;;11.76;100.00
65157;BME280;52745;49.794;18.258;2023-05-24T08:40:17;-16252.69;;;11.82;100.00
65157;BME280;52745;49.794;18.258;2023-05-24T08:42:44;-16252.97;;;11.83;100.00
65157;BME280;52745;49.794;18.258;2023-05-24T08:45:13;-16255.56;;;11.93;99.40
65157;BME280;52745;49.794;18.258;2023-05-24T08:47:40;-16255.00;;;11.91;100.00
65157;BME280;52745;49.794;18.258;2023-05-24T08:50:07;-16254.59;;;11.89;100.00
65157;BME280;52745;49.794;18.258;2023-05-24T08:52:35;-16253.63;;;11.86;100.00
65157;BME280;52745;49.794;18.258;2023-05-24T08:55:05;-16254.59;;;11.89;100.00
65157;BME280;52745;49.794;18.258;2023-05-24T08:57:32;-16252.97;;;11.83;100.00
65157;BME280;52745;49.794;18.258;2023-05-24T09:00:06;-16249.16;;;11.69;100.00
65157;BME280;52745;49.794;18.258;2023-05-24T09:02:35;-16251.06;;;11.76;100.00
65157;BME280;52745;49.794;18.258;2023-05-24T09:05:04;-16251.47;;;11.77;100.00
65157;BME280;52745;49.794;18.258;2023-05-24T09:07:35;-16252.28;;;11.80;100.00
65157;BME280;52745;49.794;18.258;2023-05-24T09:10:07;-16251.06;;;11.76;100.00
65157;BME280;52745;49.794;18.258;2023-05-24T09:12:36;-16249.81;;;11.71;100.00
65157;BME280;52745;49.794;18.258;2023-05-24T09:15:04;-16252.56;;;11.81;100.00
65157;BME280;52745;49.794;18.258;2023-05-24T09:17:34;-16259.91;;;12.09;100.00
65157;BME280;52745;49.794;18.258;2023-05-24T09:20:01;-16262.09;;;12.17;100.00
65157;BME280;52745;49.794;18.258;2023-05-24T09:22:32;-16258.28;;;12.03;100.00
65157;BME280;52745;49.794;18.258;2023-05-24T09:25:00;-16260.19;;;12.10;100.00
65157;BME280;52745;49.794;18.258;2023-05-24T09:27:30;-16263.31;;;12.22;99.35
65157;BME280;52745;49.794;18.258;2023-05-24T09:29:57;-16263.59;;;12.23;99.54
65157;BME280;52745;49.794;18.258;2023-05-24T09:32:24;-16265.91;;;12.32;98.81
65157;BME280;52745;49.794;18.258;2023-05-24T09:34:51;-16265.22;;;12.29;98.58
65157;BME280;52745;49.794;18.258;2023-05-24T09:37:23;-16264.94;;;12.28;97.91
65157;BME280;52745;49.794;18.258;2023-05-24T09:39:52;-16262.63;;;12.19;97.35
65157;BME280;52745;49.794;18.258;2023-05-24T09:42:22;-16260.72;;;12.12;98.66
65157;BME280;52745;49.794;18.258;2023-05-24T09:45:03;-16259.09;;;12.06;98.45
65157;BME280;52745;49.794;18.258;2023-05-24T09:47:41;-16260.72;;;12.12;98.31
65157;BME280;52745;49.794;18.258;2023-05-24T09:50:12;-16264.53;;;12.27;97.38
65157;BME280;52745;49.794;18.258;2023-05-24T09:52:40;-16264.69;;;12.27;96.48
65157;BME280;52745;49.794;18.258;2023-05-24T09:55:13;-16267.00;;;12.36;96.21
65157;BME280;52745;49.794;18.258;2023-05-24T09:57:43;-16266.59;;;12.34;97.13
65157;BME280;52745;49.794;18.258;2023-05-24T10:00:11;-16268.22;;;12.40;96.23
65157;BME280;52745;49.794;18.258;2023-05-24T10:03:02;-16270.53;;;12.49;96.62
65157;BME280;52745;49.794;18.258;2023-05-24T10:05:29;-16266.44;;;12.34;96.09
65157;BME280;52745;49.794;18.258;2023-05-24T10:07:57;-16267.00;;;12.36;96.58
65157;BME280;52745;49.794;18.258;2023-05-24T10:10:29;-16265.63;;;12.31;96.41
65157;BME280;52745;49.794;18.258;2023-05-24T10:12:57;-16265.50;;;12.30;97.05
65157;BME280;52745;49.794;18.258;2023-05-24T10:15:24;-16265.09;;;12.29;97.27
65157;BME280;52745;49.794;18.258;2023-05-24T10:17:56;-16264.53;;;12.27;98.90
65157;BME280;52745;49.794;18.258;2023-05-24T10:20:23;-16268.34;;;12.41;97.77
65157;BME280;52745;49.794;18.258;2023-05-24T10:23:09;-16268.91;;;12.43;97.44
65157;BME280;52745;49.794;18.258;2023-05-24T10:25:40;-16269.16;;;12.44;97.98
65157;BME280;52745;49.794;18.258;2023-05-24T10:28:12;-16271.22;;;12.52;97.31
65157;BME280;52745;49.794;18.258;2023-05-24T10:30:47;-16272.16;;;12.55;97.30
65157;BME280;52745;49.794;18.258;2023-05-24T10:33:18;-16285.66;;;13.06;96.15
65157;BME280;52745;49.794;18.258;2023-05-24T10:35:47;-16295.88;;;13.44;93.05
65157;BME280;52745;49.794;18.258;2023-05-24T10:38:15;-16296.81;;;13.48;91.64
65157;BME280;52745;49.794;18.258;2023-05-24T10:40:42;-16293.69;;;13.36;90.72
65157;BME280;52745;49.794;18.258;2023-05-24T10:43:09;-16286.72;;;13.10;92.00
65157;BME280;52745;49.794;18.258;2023-05-24T10:45:37;-16282.94;;;12.96;93.54
65157;BME280;52745;49.794;18.258;2023-05-24T10:50:41;-16284.97;;;13.03;93.62
65157;BME280;52745;49.794;18.258;2023-05-24T10:58:18;-16302.41;;;13.69;87.65
65157;BME280;52745;49.794;18.258;2023-05-24T11:00:45;-16290.13;;;13.23;89.44
65157;BME280;52745;49.794;18.258;2023-05-24T11:03:14;-16288.22;;;13.16;91.23
65157;BME280;52745;49.794;18.258;2023-05-24T11:08:32;-16291.66;;;13.29;91.61
65157;BME280;52745;49.794;18.258;2023-05-24T11:11:10;-16285.66;;;13.06;91.73
65157;BME280;52745;49.794;18.258;2023-05-24T11:13:38;-16285.38;;;13.05;91.76
65157;BME280;52745;49.794;18.258;2023-05-24T11:16:06;-16290.69;;;13.25;92.46
65157;BME280;52745;49.794;18.258;2023-05-24T11:18:33;-16294.78;;;13.40;90.82
65157;BME280;52745;49.794;18.258;2023-05-24T11:21:05;-16301.16;;;13.64;89.04
65157;BME280;52745;49.794;18.258;2023-05-24T11:23:34;-16303.75;;;13.74;88.61
65157;BME280;52745;49.794;18.258;2023-05-24T11:26:02;-16307.03;;;13.86;88.75
65157;BME280;52745;49.794;18.258;2023-05-24T11:28:29;-16299.81;;;13.59;88.08
65157;BME280;52745;49.794;18.258;2023-05-24T11:30:56;-16295.59;;;13.43;89.31
65157;BME280;52745;49.794;18.258;2023-05-24T11:33:23;-16293.41;;;13.35;88.80
65157;BME280;52745;49.794;18.258;2023-05-24T11:35:50;-16293.69;;;13.36;89.08
65157;BME280;52745;49.794;18.258;2023-05-24T11:38:18;-16295.44;;;13.43;90.57
65157;BME280;52745;49.794;18.258;2023-05-24T11:40:48;-16293.97;;;13.37;89.71
65157;BME280;52745;49.794;18.258;2023-05-24T11:43:16;-16295.88;;;13.44;89.75
65157;BME280;52745;49.794;18.258;2023-05-24T11:45:45;-16298.03;;;13.53;90.25
65157;BME280;52745;49.794;18.258;2023-05-24T11:48:15;-16299.94;;;13.60;88.39
65157;BME280;52745;49.794;18.258;2023-05-24T11:50:43;-16294.50;;;13.39;89.10
65157;BME280;52745;49.794;18.258;2023-05-24T11:53:11;-16291.50;;;13.28;89.25
65157;BME280;52745;49.794;18.258;2023-05-24T11:55:39;-16292.88;;;13.33;89.23
65157;BME280;52745;49.794;18.258;2023-05-24T12:00:42;-16295.19;;;13.42;89.30
65157;BME280;52745;49.794;18.258;2023-05-24T12:03:09;-16298.19;;;13.53;87.81
65157;BME280;52745;49.794;18.258;2023-05-24T12:05:36;-16300.75;;;13.63;88.78
65157;BME280;52745;49.794;18.258;2023-05-24T12:08:07;-16298.59;;;13.55;88.50
65157;BME280;52745;49.794;18.258;2023-05-24T12:10:36;-16301.03;;;13.64;88.91
65157;BME280;52745;49.794;18.258;2023-05-24T12:13:03;-16301.56;;;13.66;87.54
65157;BME280;52745;49.794;18.258;2023-05-24T12:15:31;-16299.66;;;13.59;86.84
65157;BME280;52745;49.794;18.258;2023-05-24T12:17:58;-16302.41;;;13.69;86.12
65157;BME280;52745;49.794;18.258;2023-05-24T12:20:28;-16305.38;;;13.80;86.51
65157;BME280;52745;49.794;18.258;2023-05-24T12:22:55;-16314.78;;;14.16;86.99
65157;BME280;52745;49.794;18.258;2023-05-24T12:25:22;-16318.84;;;14.31;85.13
65157;BME280;52745;49.794;18.258;2023-05-24T12:27:53;-16323.63;;;14.49;84.41
65157;BME280;52745;49.794;18.258;2023-05-24T12:30:22;-16328.78;;;14.68;83.70
65157;BME280;52745;49.794;18.258;2023-05-24T12:32:49;-16329.59;;;14.72;82.42
65157;BME280;52745;49.794;18.258;2023-05-24T12:35:17;-16323.75;;;14.49;82.57
65157;BME280;52745;49.794;18.258;2023-05-24T12:37:44;-16312.88;;;14.08;84.02
65157;BME280;52745;49.794;18.258;2023-05-24T12:40:19;-16313.28;;;14.10;83.81
65157;BME280;52745;49.794;18.258;2023-05-24T12:42:52;-16310.56;;;14.00;83.87
65157;BME280;52745;49.794;18.258;2023-05-24T12:45:19;-16313.81;;;14.12;83.88
65157;BME280;52745;49.794;18.258;2023-05-24T12:47:51;-16317.63;;;14.26;84.08
65157;BME280;52745;49.794;18.258;2023-05-24T12:50:19;-16317.75;;;14.27;83.22
65157;BME280;52745;49.794;18.258;2023-05-24T12:52:48;-16305.13;;;13.79;84.37
65157;BME280;52745;49.794;18.258;2023-05-24T12:55:22;-16307.69;;;13.89;84.70
65157;BME280;52745;49.794;18.258;2023-05-24T12:57:49;-16306.63;;;13.85;84.46
65157;BME280;52745;49.794;18.258;2023-05-24T13:00:20;-16309.06;;;13.94;84.36
65157;BME280;52745;49.794;18.258;2023-05-24T13:02:48;-16310.00;;;13.98;85.23